createdAt,value
2023-04-21T00:00:19.418Z,194.88
2023-04-21T00:01:19.416Z,197.36
2023-04-21T00:02:19.557Z,195.15
2023-04-21T00:03:19.620Z,197.44
2023-04-21T00:04:19.663Z,196.17
2023-04-21T00:05:19.647Z,196.32
2023-04-21T00:06:19.640Z,196.57
2023-04-21T00:07:19.677Z,195.64
2023-04-21T00:08:19.753Z,196.27
2023-04-21T00:09:20.079Z,197.05
2023-04-21T00:10:19.899Z,197.87
2023-04-21T00:11:19.955Z,195.06
2023-04-21T00:12:20.013Z,197.06
2023-04-21T00:13:20.081Z,197.39
2023-04-21T00:14:20.143Z,196.53
2023-04-21T00:15:20.213Z,196.57
2023-04-21T00:16:20.310Z,195.74
2023-04-21T00:17:20.352Z,194.75
2023-04-21T00:18:20.413Z,196.18
2023-04-21T00:19:20.725Z,195.62
2023-04-21T00:20:20.540Z,196.51
2023-04-21T00:21:20.601Z,197.42
2023-04-21T00:22:20.664Z,195.13
2023-04-21T00:23:20.716Z,195.83
2023-04-21T00:24:20.789Z,196.80
2023-04-21T00:25:20.849Z,198.00
2023-04-21T00:26:20.930Z,196.50
2023-04-21T00:27:20.968Z,197.05
2023-04-21T00:28:21.023Z,196.45
2023-04-21T00:29:21.207Z,197.88
2023-04-21T00:30:21.145Z,196.17
2023-04-21T00:31:21.214Z,197.35
2023-04-21T00:32:21.310Z,196.97
2023-04-21T00:33:21.336Z,197.53
2023-04-21T00:34:21.391Z,195.28
2023-04-21T00:35:21.455Z,195.54
2023-04-21T00:36:21.522Z,194.57
2023-04-21T00:37:21.574Z,196.92
2023-04-21T00:38:21.623Z,197.97
2023-04-21T00:39:21.846Z,196.58
2023-04-21T00:40:21.743Z,196.06
2023-04-21T00:41:21.809Z,198.04
2023-04-21T00:42:21.866Z,195.39
2023-04-21T00:43:21.935Z,196.49
2023-04-21T00:44:22.011Z,197.63
2023-04-21T00:45:22.052Z,197.49
2023-04-21T00:46:22.161Z,194.83
2023-04-21T00:47:22.213Z,195.00
2023-04-21T00:48:22.259Z,195.03
2023-04-21T00:49:22.310Z,195.83
2023-04-21T00:50:22.387Z,197.50
2023-04-21T00:51:22.476Z,197.19
2023-04-21T00:52:22.540Z,196.91
2023-04-21T00:53:22.578Z,195.04
2023-04-21T00:54:22.644Z,197.44
2023-04-21T00:55:22.712Z,195.90
2023-04-21T00:56:22.763Z,197.50
2023-04-21T00:57:22.827Z,195.95
2023-04-21T00:58:22.903Z,195.20
2023-04-21T00:59:22.951Z,196.01
2023-04-21T01:00:23.018Z,195.73
2023-04-21T01:01:23.176Z,196.30
2023-04-21T01:02:23.252Z,196.36
2023-04-21T01:03:23.346Z,196.52
2023-04-21T01:04:23.355Z,195.74
2023-04-21T01:05:23.349Z,195.48
2023-04-21T01:06:23.424Z,196.61
2023-04-21T01:07:23.478Z,197.02
2023-04-21T01:08:23.549Z,197.10
2023-04-21T01:09:23.623Z,194.52
2023-04-21T01:10:23.666Z,195.90
2023-04-21T01:11:23.752Z,198.98
2023-04-21T01:12:23.802Z,196.15
2023-04-21T01:13:23.878Z,194.91
2023-04-21T01:14:23.929Z,197.10
2023-04-21T01:15:24.002Z,197.20
2023-04-21T01:16:24.237Z,196.19
2023-04-21T01:17:24.117Z,196.47
2023-04-21T01:18:24.201Z,195.78
2023-04-21T01:19:24.254Z,195.58
2023-04-21T01:20:24.337Z,197.62
2023-04-21T01:21:24.389Z,197.60
2023-04-21T01:22:24.471Z,194.66
2023-04-21T01:23:24.512Z,196.60
2023-04-21T01:24:24.570Z,195.32
2023-04-21T01:25:24.679Z,196.51
2023-04-21T01:26:24.660Z,196.66
2023-04-21T01:27:24.667Z,196.76
2023-04-21T01:28:24.688Z,194.99
2023-04-21T01:29:24.721Z,196.88
2023-04-21T01:30:24.724Z,196.66
2023-04-21T01:31:24.760Z,196.81
2023-04-21T01:32:24.891Z,196.80
2023-04-21T01:33:24.772Z,197.04
2023-04-21T01:34:24.816Z,197.47
2023-04-21T01:35:24.824Z,196.78
2023-04-21T01:36:24.854Z,197.10
2023-04-21T01:37:24.869Z,197.28
2023-04-21T01:38:24.878Z,197.49
2023-04-21T01:39:24.924Z,197.28
2023-04-21T01:40:24.918Z,195.09
2023-04-21T01:41:24.951Z,197.19
2023-04-21T01:42:24.973Z,196.72
2023-04-21T01:43:24.981Z,197.30
2023-04-21T01:44:25.004Z,195.47
2023-04-21T01:45:25.019Z,196.25
2023-04-21T01:46:25.063Z,196.03
2023-04-21T01:47:25.054Z,196.16
2023-04-21T01:48:25.086Z,196.30
2023-04-21T01:49:25.087Z,196.59
2023-04-21T01:50:25.152Z,195.90
2023-04-21T01:51:25.229Z,196.61
2023-04-21T01:52:25.286Z,194.55
2023-04-21T01:53:25.354Z,196.11
2023-04-21T01:54:25.417Z,196.75
2023-04-21T01:55:25.469Z,196.36
2023-04-21T01:56:25.543Z,197.53
2023-04-21T01:57:25.610Z,196.05
2023-04-21T01:58:25.664Z,197.27
2023-04-21T01:59:25.732Z,193.97
2023-04-21T02:00:25.795Z,197.67
2023-04-21T02:01:25.899Z,194.87
2023-04-21T02:02:26.047Z,196.25
2023-04-21T02:03:26.173Z,193.98
2023-04-21T02:04:26.132Z,194.10
2023-04-21T02:05:26.012Z,194.43
2023-04-21T02:06:26.029Z,195.12
2023-04-21T02:07:26.053Z,195.10
2023-04-21T02:08:26.059Z,198.25
2023-04-21T02:09:26.065Z,196.15
2023-04-21T02:10:26.087Z,196.50
2023-04-21T02:11:26.118Z,195.92
2023-04-21T02:12:26.117Z,196.13
2023-04-21T02:13:26.153Z,196.60
2023-04-21T02:14:26.168Z,195.91
2023-04-21T02:15:26.166Z,196.34
2023-04-21T02:16:26.366Z,195.70
2023-04-21T02:17:26.278Z,195.47
2023-04-21T02:18:26.339Z,195.94
2023-04-21T02:19:26.406Z,196.46
2023-04-21T02:20:26.485Z,197.64
2023-04-21T02:21:26.555Z,195.96
2023-04-21T02:22:26.594Z,195.78
2023-04-21T02:23:26.657Z,195.40
2023-04-21T02:24:26.730Z,195.01
2023-04-21T02:25:26.789Z,196.30
2023-04-21T02:26:26.864Z,195.27
2023-04-21T02:27:26.937Z,197.52
2023-04-21T02:28:26.992Z,194.69
2023-04-21T02:29:27.051Z,196.05
2023-04-21T02:30:27.115Z,195.93
2023-04-21T02:31:27.222Z,194.69
2023-04-21T02:32:27.351Z,195.43
2023-04-21T02:33:27.373Z,194.99
2023-04-21T02:34:27.377Z,196.06
2023-04-21T02:35:27.453Z,194.96
2023-04-21T02:36:27.476Z,195.07
2023-04-21T02:37:27.477Z,195.18
2023-04-21T02:38:27.493Z,195.47
2023-04-21T02:39:27.520Z,195.36
2023-04-21T02:40:27.534Z,195.65
2023-04-21T02:41:27.608Z,195.14
2023-04-21T02:42:27.567Z,195.54
2023-04-21T02:43:27.585Z,195.79
2023-04-21T02:44:27.616Z,187.80
2023-04-21T02:45:27.629Z,170.16
2023-04-21T02:46:27.706Z,158.99
2023-04-21T02:47:27.708Z,154.51
2023-04-21T02:48:27.680Z,140.65
2023-04-21T02:49:27.716Z,125.86
2023-04-21T02:50:27.724Z,113.01
2023-04-21T02:51:27.767Z,96.69
2023-04-21T02:52:27.776Z,85.58
2023-04-21T02:53:27.817Z,75.77
2023-04-21T02:54:27.827Z,62.37
2023-04-21T02:55:27.839Z,54.89
2023-04-21T02:56:27.894Z,46.01
2023-04-21T02:57:27.968Z,34.59
2023-04-21T02:58:28.041Z,26.20
2023-04-21T02:59:28.126Z,25.66
2023-04-21T03:00:28.214Z,25.07
2023-04-21T03:01:28.246Z,25.02
2023-04-21T03:02:28.403Z,25.00
2023-04-21T03:03:28.488Z,25.00
2023-04-21T03:04:28.572Z,25.01
2023-04-21T03:05:28.563Z,25.00
2023-04-21T03:06:28.579Z,23.86
2023-04-21T03:07:28.616Z,17.79
2023-04-21T03:08:28.640Z,17.80
2023-04-21T03:09:28.665Z,14.09
2023-04-21T03:10:28.720Z,8.80
2023-04-21T03:11:28.747Z,22.58
2023-04-21T03:12:28.761Z,26.63
2023-04-21T03:13:28.807Z,28.69
2023-04-21T03:14:28.874Z,25.00
2023-04-21T03:15:28.973Z,25.76
2023-04-21T03:16:29.060Z,26.68
2023-04-21T03:17:30.972Z,24.18
2023-04-21T03:18:29.089Z,22.89
2023-04-21T03:19:29.122Z,19.25
2023-04-21T03:20:29.146Z,19.13
2023-04-21T03:21:29.190Z,16.95
2023-04-21T03:22:29.194Z,15.79
2023-04-21T03:23:29.225Z,22.74
2023-04-21T03:24:29.258Z,27.19
2023-04-21T03:25:29.280Z,24.62
2023-04-21T03:26:29.331Z,25.46
2023-04-21T03:27:29.342Z,26.27
2023-04-21T03:28:29.391Z,28.02
2023-04-21T03:29:29.407Z,25.17
2023-04-21T03:30:29.451Z,26.08
2023-04-21T03:31:29.472Z,25.70
2023-04-21T03:32:29.513Z,29.18
2023-04-21T03:33:29.505Z,27.92
2023-04-21T03:34:29.533Z,29.63
2023-04-21T03:35:29.562Z,27.21
2023-04-21T03:36:29.590Z,27.21
2023-04-21T03:37:29.596Z,27.38
2023-04-21T03:38:29.621Z,27.18
2023-04-21T03:39:29.646Z,23.76
2023-04-21T03:40:29.672Z,27.06
2023-04-21T03:41:29.711Z,28.56
2023-04-21T03:42:29.736Z,27.49
2023-04-21T03:43:29.746Z,29.08
2023-04-21T03:44:29.814Z,27.36
2023-04-21T03:45:29.779Z,28.62
2023-04-21T03:46:30.071Z,26.17
2023-04-21T03:47:29.844Z,27.06
2023-04-21T03:48:29.832Z,27.58
2023-04-21T03:49:29.868Z,28.86
2023-04-21T03:50:29.887Z,27.86
2023-04-21T03:51:29.924Z,27.71
2023-04-21T03:52:29.943Z,29.04
2023-04-21T03:53:29.965Z,29.10
2023-04-21T03:54:29.986Z,29.14
2023-04-21T03:55:30.003Z,27.25
2023-04-21T03:56:30.041Z,26.81
2023-04-21T03:57:30.116Z,28.31
2023-04-21T03:58:30.100Z,28.96
2023-04-21T03:59:30.161Z,27.77
2023-04-21T04:00:30.161Z,29.56
2023-04-21T04:01:30.171Z,30.04
2023-04-21T04:02:30.261Z,29.12
2023-04-21T04:03:30.424Z,31.94
2023-04-21T04:04:30.436Z,32.00
2023-04-21T04:05:30.361Z,32.16
2023-04-21T04:06:30.332Z,31.05
2023-04-21T04:07:30.335Z,30.92
2023-04-21T04:08:30.362Z,30.45
2023-04-21T04:09:30.398Z,29.72
2023-04-21T04:10:30.489Z,28.53
2023-04-21T04:11:30.557Z,29.88
2023-04-21T04:12:30.598Z,29.71
2023-04-21T04:13:30.684Z,29.08
2023-04-21T04:14:30.741Z,28.74
2023-04-21T04:15:30.811Z,29.47
2023-04-21T04:16:30.912Z,28.29
2023-04-21T04:17:30.996Z,30.64
2023-04-21T04:18:31.024Z,27.90
2023-04-21T04:19:31.116Z,27.86
2023-04-21T04:20:31.174Z,28.88
2023-04-21T04:21:31.259Z,29.55
2023-04-21T04:22:31.325Z,29.25
2023-04-21T04:23:31.407Z,29.52
2023-04-21T04:24:31.493Z,28.26
2023-04-21T04:25:31.568Z,29.19
2023-04-21T04:26:31.633Z,30.31
2023-04-21T04:27:31.710Z,29.63
2023-04-21T04:28:31.736Z,29.65
2023-04-21T04:29:31.770Z,29.81
2023-04-21T04:30:31.790Z,30.36
2023-04-21T04:31:31.878Z,32.99
2023-04-21T04:32:31.881Z,37.23
2023-04-21T04:33:31.903Z,37.80
2023-04-21T04:34:31.904Z,38.51
2023-04-21T04:35:31.954Z,38.66
2023-04-21T04:36:31.981Z,38.16
2023-04-21T04:37:31.994Z,38.19
2023-04-21T04:38:32.033Z,38.17
2023-04-21T04:39:32.052Z,38.78
2023-04-21T04:40:32.079Z,39.16
2023-04-21T04:41:32.119Z,38.31
2023-04-21T04:42:32.136Z,38.73
2023-04-21T04:43:32.171Z,39.45
2023-04-21T04:44:32.306Z,40.50
2023-04-21T04:45:32.277Z,42.06
2023-04-21T04:46:32.290Z,41.75
2023-04-21T04:47:32.333Z,40.85
2023-04-21T04:48:32.334Z,40.38
2023-04-21T04:49:32.375Z,42.82
2023-04-21T04:50:32.402Z,43.83
2023-04-21T04:51:32.462Z,45.04
2023-04-21T04:52:32.468Z,46.55
2023-04-21T04:53:32.545Z,48.47
2023-04-21T04:54:32.610Z,48.44
2023-04-21T04:55:32.712Z,48.55
2023-04-21T04:56:32.796Z,47.78
2023-04-21T04:57:32.865Z,49.58
2023-04-21T04:58:32.907Z,49.63
2023-04-21T04:59:32.917Z,49.62
2023-04-21T05:00:32.950Z,49.68
2023-04-21T05:01:33.025Z,50.00
2023-04-21T05:02:33.297Z,50.36
2023-04-21T05:03:33.135Z,51.57
2023-04-21T05:04:33.174Z,53.08
2023-04-21T05:05:33.128Z,53.03
2023-04-21T05:06:33.156Z,52.76
2023-04-21T05:07:33.195Z,52.83
2023-04-21T05:08:33.224Z,53.05
2023-04-21T05:09:33.263Z,54.06
2023-04-21T05:10:33.277Z,55.35
2023-04-21T05:11:33.333Z,56.74
2023-04-21T05:12:33.351Z,59.20
2023-04-21T05:13:33.388Z,62.31
2023-04-21T05:14:33.408Z,63.04
2023-04-21T05:15:33.457Z,64.88
2023-04-21T05:16:33.542Z,66.32
2023-04-21T05:17:33.646Z,70.87
2023-04-21T05:18:33.711Z,74.50
2023-04-21T05:19:33.801Z,76.15
2023-04-21T05:20:33.907Z,78.06
2023-04-21T05:21:33.995Z,77.07
2023-04-21T05:22:34.109Z,79.92
2023-04-21T05:23:34.204Z,80.02
2023-04-21T05:24:34.174Z,80.68
2023-04-21T05:25:34.193Z,82.42
2023-04-21T05:26:34.244Z,84.53
2023-04-21T05:27:34.269Z,89.26
2023-04-21T05:28:34.301Z,88.42
2023-04-21T05:29:34.351Z,85.44
2023-04-21T05:30:34.385Z,88.50
2023-04-21T05:31:34.434Z,93.19
2023-04-21T05:32:34.628Z,100.89
2023-04-21T05:33:34.535Z,112.72
2023-04-21T05:34:34.620Z,123.96
2023-04-21T05:35:37.243Z,133.45
2023-04-21T05:36:34.740Z,140.11
2023-04-21T05:37:34.777Z,148.72
2023-04-21T05:38:34.790Z,155.24
2023-04-21T05:39:34.815Z,160.74
2023-04-21T05:40:34.831Z,167.89
2023-04-21T05:41:34.876Z,171.89
2023-04-21T05:42:34.898Z,174.51
2023-04-21T05:43:34.960Z,181.84
2023-04-21T05:44:34.983Z,187.42
2023-04-21T05:45:34.972Z,187.78
2023-04-21T05:46:35.254Z,187.75
2023-04-21T05:47:35.128Z,189.85
2023-04-21T05:48:35.049Z,191.81
2023-04-21T05:49:35.096Z,198.07
2023-04-21T05:50:35.106Z,199.83
2023-04-21T05:51:35.170Z,206.43
2023-04-21T05:52:35.197Z,206.39
2023-04-21T05:53:35.192Z,214.38
2023-04-21T05:54:35.216Z,215.09
2023-04-21T05:55:35.344Z,218.34
2023-04-21T05:56:35.312Z,226.11
2023-04-21T05:57:35.291Z,231.04
2023-04-21T05:58:35.365Z,233.84
2023-04-21T05:59:35.380Z,237.10
2023-04-21T06:00:35.520Z,241.61
2023-04-21T06:01:35.482Z,247.78
2023-04-21T06:02:35.599Z,248.05
2023-04-21T06:03:35.660Z,249.34
2023-04-21T06:04:35.658Z,251.77
2023-04-21T06:05:35.674Z,256.54
2023-04-21T06:06:35.606Z,248.65
2023-04-21T06:07:35.625Z,248.80
2023-04-21T06:08:35.623Z,252.79
2023-04-21T06:09:35.637Z,260.73
2023-04-21T06:10:35.682Z,273.91
2023-04-21T06:11:35.718Z,288.75
2023-04-21T06:12:35.741Z,249.32
2023-04-21T06:13:37.476Z,254.51
2023-04-21T06:14:35.731Z,264.45
2023-04-21T06:15:35.757Z,249.62
2023-04-21T06:16:35.952Z,255.19
2023-04-21T06:17:35.861Z,264.81
2023-04-21T06:18:35.847Z,278.75
2023-04-21T06:19:35.837Z,249.54
2023-04-21T06:20:35.867Z,255.49
2023-04-21T06:21:35.906Z,265.93
2023-04-21T06:22:35.920Z,281.09
2023-04-21T06:23:35.933Z,307.03
2023-04-21T06:24:35.997Z,298.73
2023-04-21T06:25:35.973Z,285.58
2023-04-21T06:26:36.052Z,275.89
2023-04-21T06:27:36.020Z,265.63
2023-04-21T06:28:36.094Z,256.62
2023-04-21T06:29:36.125Z,250.00
2023-04-21T06:30:36.109Z,249.02
2023-04-21T06:31:36.270Z,249.53
2023-04-21T06:32:36.231Z,249.72
2023-04-21T06:33:36.197Z,250.00
2023-04-21T06:34:36.289Z,250.00
2023-04-21T06:35:36.191Z,249.97
2023-04-21T06:36:36.247Z,249.61
2023-04-21T06:37:36.219Z,249.73
2023-04-21T06:38:36.230Z,249.17
2023-04-21T06:39:36.251Z,249.10
2023-04-21T06:40:36.282Z,249.84
2023-04-21T06:41:36.286Z,249.78
2023-04-21T06:42:36.373Z,250.00
2023-04-21T06:43:36.382Z,249.24
2023-04-21T06:44:36.332Z,247.04
2023-04-21T06:45:36.346Z,245.46
2023-04-21T06:46:36.403Z,240.10
2023-04-21T06:47:36.392Z,234.94
2023-04-21T06:48:36.409Z,233.94
2023-04-21T06:49:36.427Z,233.65
2023-04-21T06:50:36.425Z,233.03
2023-04-21T06:51:36.418Z,233.91
2023-04-21T06:52:36.500Z,233.52
2023-04-21T06:53:36.459Z,233.83
2023-04-21T06:54:36.491Z,234.56
2023-04-21T06:55:36.474Z,235.94
2023-04-21T06:56:36.514Z,236.09
2023-04-21T06:57:36.524Z,236.86
2023-04-21T06:58:36.550Z,239.67
2023-04-21T06:59:36.686Z,236.98
2023-04-21T07:00:36.566Z,238.88
2023-04-21T07:01:36.672Z,242.46
2023-04-21T07:02:36.711Z,247.61
2023-04-21T07:03:36.747Z,254.10
2023-04-21T07:04:36.665Z,248.78
2023-04-21T07:05:36.634Z,246.96
2023-04-21T07:06:36.643Z,244.44
2023-04-21T07:07:36.683Z,239.10
2023-04-21T07:08:36.694Z,237.95
2023-04-21T07:09:36.721Z,238.63
2023-04-21T07:10:36.750Z,229.87
2023-04-21T07:11:36.800Z,224.51
2023-04-21T07:12:36.834Z,224.62
2023-04-21T07:13:36.743Z,221.45
2023-04-21T07:14:36.824Z,216.87
2023-04-21T07:15:36.822Z,212.56
2023-04-21T07:16:36.830Z,207.21
2023-04-21T07:17:36.916Z,206.85
2023-04-21T07:18:36.859Z,203.08
2023-04-21T07:19:36.836Z,202.00
2023-04-21T07:20:36.880Z,202.32
2023-04-21T07:21:36.936Z,198.25
2023-04-21T07:22:37.023Z,195.86
2023-04-21T07:23:37.122Z,192.12
2023-04-21T07:24:37.188Z,189.63
2023-04-21T07:25:37.252Z,188.25
2023-04-21T07:26:37.333Z,184.88
2023-04-21T07:27:37.434Z,182.46
2023-04-21T07:28:37.514Z,179.02
2023-04-21T07:29:37.618Z,181.11
2023-04-21T07:30:37.711Z,182.64
2023-04-21T07:31:37.953Z,185.46
2023-04-21T07:32:37.924Z,179.34
2023-04-21T07:33:37.934Z,181.68
2023-04-21T07:34:38.019Z,181.51
2023-04-21T07:35:38.249Z,178.61
2023-04-21T07:36:38.210Z,135.48
2023-04-21T07:37:38.249Z,118.16
2023-04-21T07:38:38.343Z,94.96
2023-04-21T07:39:38.413Z,83.34
2023-04-21T07:40:38.482Z,76.32
2023-04-21T07:41:38.516Z,70.64
2023-04-21T07:42:38.658Z,67.87
2023-04-21T07:43:38.593Z,70.44
2023-04-21T07:44:38.587Z,68.02
2023-04-21T07:45:38.624Z,58.76
2023-04-21T07:46:38.773Z,51.15
2023-04-21T07:47:38.743Z,61.90
2023-04-21T07:48:38.758Z,44.56
2023-04-21T07:49:38.840Z,36.04
2023-04-21T07:50:38.933Z,48.51
2023-04-21T07:51:38.975Z,55.56
2023-04-21T07:52:39.042Z,60.65
2023-04-21T07:53:39.095Z,71.71
2023-04-21T07:54:39.143Z,79.47
2023-04-21T07:55:39.180Z,88.45
2023-04-21T07:56:39.226Z,97.24
2023-04-21T07:57:39.292Z,93.81
2023-04-21T07:58:39.299Z,94.05
2023-04-21T07:59:39.306Z,96.21
2023-04-21T08:00:39.418Z,101.20
2023-04-21T08:01:39.354Z,107.48
2023-04-21T08:02:39.460Z,120.56
2023-04-21T08:03:39.505Z,125.01
2023-04-21T08:04:39.673Z,127.67
2023-04-21T08:05:41.297Z,131.23
2023-04-21T08:06:39.624Z,134.43
2023-04-21T08:07:39.592Z,135.53
2023-04-21T08:08:39.701Z,139.48
2023-04-21T08:09:39.751Z,141.67
2023-04-21T08:10:39.841Z,145.22
2023-04-21T08:11:39.916Z,148.30
2023-04-21T08:12:40.022Z,147.70
2023-04-21T08:13:40.075Z,150.54
2023-04-21T08:14:40.165Z,152.12
2023-04-21T08:15:40.230Z,153.49
2023-04-21T08:16:40.453Z,153.00
2023-04-21T08:17:40.517Z,154.15
2023-04-21T08:18:40.507Z,121.00
2023-04-21T08:19:40.659Z,95.82
2023-04-21T08:20:40.602Z,83.25
2023-04-21T08:21:40.672Z,93.39
2023-04-21T08:22:40.753Z,97.25
2023-04-21T08:23:40.736Z,102.67
2023-04-21T08:24:40.766Z,107.24
2023-04-21T08:25:40.753Z,116.58
2023-04-21T08:26:40.814Z,122.45
2023-04-21T08:27:40.947Z,126.26
2023-04-21T08:28:40.982Z,126.38
2023-04-21T08:29:40.940Z,127.24
2023-04-21T08:30:40.974Z,128.60
2023-04-21T08:31:41.004Z,128.86
2023-04-21T08:32:41.119Z,131.12
2023-04-21T08:33:49.792Z,132.82
2023-04-21T08:34:42.059Z,129.68
2023-04-21T08:35:47.944Z,130.28
2023-04-21T08:36:42.155Z,128.02
2023-04-21T08:37:41.171Z,125.84
2023-04-21T08:38:41.162Z,124.02
2023-04-21T08:39:41.138Z,128.31
2023-04-21T08:40:41.175Z,121.86
2023-04-21T08:41:41.174Z,119.78
2023-04-21T08:42:41.227Z,116.28
2023-04-21T08:43:41.226Z,117.57
2023-04-21T08:44:41.281Z,107.83
2023-04-21T08:45:41.294Z,110.33
2023-04-21T08:46:41.307Z,106.51
2023-04-21T08:47:41.367Z,107.13
2023-04-21T08:48:41.485Z,101.81
2023-04-21T08:49:41.378Z,105.42
2023-04-21T08:50:41.409Z,94.75
2023-04-21T08:51:41.411Z,94.02
2023-04-21T08:52:41.458Z,89.22
2023-04-21T08:53:41.499Z,91.22
2023-04-21T08:54:41.508Z,83.57
2023-04-21T08:55:41.511Z,82.51
2023-04-21T08:56:41.611Z,84.48
2023-04-21T08:57:41.597Z,76.02
2023-04-21T08:58:41.782Z,69.85
2023-04-21T08:59:41.643Z,70.20
2023-04-21T09:00:41.665Z,74.86
2023-04-21T09:01:41.768Z,77.48
2023-04-21T09:02:41.808Z,68.97
2023-04-21T09:03:41.839Z,71.67
2023-04-21T09:04:42.017Z,74.82
2023-04-21T09:05:43.211Z,68.48
2023-04-21T09:06:41.949Z,68.34
2023-04-21T09:07:41.864Z,75.28
2023-04-21T09:08:41.908Z,80.96
2023-04-21T09:09:41.952Z,76.80
2023-04-21T09:10:41.986Z,78.73
2023-04-21T09:11:42.030Z,83.44
2023-04-21T09:12:42.079Z,78.76
2023-04-21T09:13:42.142Z,82.16
2023-04-21T09:14:42.144Z,82.96
2023-04-21T09:15:42.197Z,80.32
2023-04-21T09:16:42.245Z,79.95
2023-04-21T09:17:42.346Z,80.50
2023-04-21T09:18:42.313Z,84.38
2023-04-21T09:19:42.323Z,83.50
2023-04-21T09:20:42.388Z,82.61
2023-04-21T09:21:42.360Z,83.05
2023-04-21T09:22:42.404Z,82.66
2023-04-21T09:23:42.406Z,82.53
2023-04-21T09:24:42.467Z,84.24
2023-04-21T09:25:42.467Z,85.96
2023-04-21T09:26:42.594Z,81.93
2023-04-21T09:27:42.574Z,84.09
2023-04-21T09:28:42.574Z,86.48
2023-04-21T09:29:42.576Z,88.34
2023-04-21T09:30:42.725Z,84.38
2023-04-21T09:31:42.720Z,83.46
2023-04-21T09:32:42.712Z,86.74
2023-04-21T09:33:56.531Z,86.73
2023-04-21T09:34:43.675Z,86.90
2023-04-21T09:35:42.690Z,87.41
2023-04-21T09:36:42.725Z,88.74
2023-04-21T09:37:42.757Z,91.34
2023-04-21T09:38:42.755Z,90.13
2023-04-21T09:39:52.677Z,93.97
2023-04-21T09:40:43.886Z,94.05
2023-04-21T09:41:42.833Z,94.23
2023-04-21T09:42:44.779Z,95.57
2023-04-21T09:43:42.900Z,77.37
2023-04-21T09:44:52.418Z,49.44
2023-04-21T09:45:43.922Z,47.01
2023-04-21T09:46:43.022Z,38.26
2023-04-21T09:47:43.059Z,40.62
2023-04-21T09:48:43.017Z,24.70
2023-04-21T09:49:43.017Z,19.95
2023-04-21T09:51:15.362Z,16.19
2023-04-21T09:52:43.139Z,14.25
2023-04-21T09:53:43.152Z,12.73
2023-04-21T09:54:43.159Z,13.34
2023-04-21T09:55:43.198Z,17.06
2023-04-21T09:56:43.228Z,16.80
2023-04-21T09:57:43.275Z,29.64
2023-04-21T09:58:43.296Z,44.11
2023-04-21T09:59:43.305Z,51.72
2023-04-21T10:00:43.368Z,59.98
2023-04-21T10:01:43.406Z,68.75
2023-04-21T10:02:43.512Z,76.08
2023-04-21T10:03:43.611Z,76.46
2023-04-21T10:04:43.902Z,79.53
2023-04-21T10:05:43.598Z,88.10
2023-04-21T10:06:43.500Z,103.30
2023-04-21T10:07:43.538Z,130.80
2023-04-21T10:08:43.521Z,141.77
2023-04-21T10:09:43.549Z,151.83
2023-04-21T10:10:43.577Z,144.40
2023-04-21T10:11:43.579Z,121.18
2023-04-21T10:12:43.613Z,132.82
2023-04-21T10:13:43.593Z,147.39
2023-04-21T10:14:43.625Z,129.31
2023-04-21T10:15:43.760Z,109.48
2023-04-21T10:16:43.908Z,107.52
2023-04-21T10:17:43.695Z,110.54
2023-04-21T10:18:43.686Z,114.36
2023-04-21T10:19:43.689Z,114.73
2023-04-21T10:20:43.767Z,109.85
2023-04-21T10:21:43.737Z,110.33
2023-04-21T10:22:43.806Z,110.55
2023-04-21T10:23:43.991Z,106.62
2023-04-21T10:24:43.796Z,89.73
2023-04-21T10:25:43.800Z,88.01
2023-04-21T10:26:43.866Z,87.20
2023-04-21T10:27:43.878Z,72.82
2023-04-21T10:28:43.894Z,71.06
2023-04-21T10:29:55.549Z,72.54
2023-04-21T10:30:44.898Z,61.41
2023-04-21T10:31:43.979Z,68.76
2023-04-21T10:32:44.015Z,60.25
2023-04-21T10:33:43.954Z,73.74
2023-04-21T10:34:43.993Z,73.18
2023-04-21T10:35:44.022Z,76.66
2023-04-21T10:36:44.044Z,83.69
2023-04-21T10:37:44.041Z,86.58
2023-04-21T10:38:44.046Z,63.76
2023-04-21T10:39:44.050Z,37.07
2023-04-21T10:40:44.734Z,34.18
2023-04-21T10:41:44.167Z,18.41
2023-04-21T10:42:44.119Z,45.49
2023-04-21T10:43:45.227Z,56.71
2023-04-21T10:44:44.112Z,67.43
2023-04-21T10:45:44.170Z,77.20
2023-04-21T10:46:44.285Z,84.65
2023-04-21T10:47:44.480Z,84.07
2023-04-21T10:48:44.330Z,83.04
2023-04-21T10:49:44.439Z,85.32
2023-04-21T10:50:44.498Z,87.88
2023-04-21T10:51:44.585Z,84.72
2023-04-21T10:52:44.669Z,83.68
2023-04-21T10:53:44.743Z,93.05
2023-04-21T10:54:44.857Z,92.90
2023-04-21T10:55:44.916Z,84.32
2023-04-21T10:56:45.019Z,80.15
2023-04-21T10:57:45.129Z,70.14
2023-04-21T10:58:45.168Z,77.98
2023-04-21T10:59:45.249Z,84.56
2023-04-21T11:00:45.399Z,85.23
2023-04-21T11:01:45.421Z,93.90
2023-04-21T11:02:45.634Z,89.73
2023-04-21T11:03:45.894Z,87.31
2023-04-21T11:04:46.343Z,95.40
2023-04-21T11:05:45.766Z,101.26
2023-04-21T11:06:45.859Z,107.40
2023-04-21T11:07:45.958Z,113.22
2023-04-21T11:08:46.022Z,113.47
2023-04-21T11:09:46.119Z,104.21
2023-04-21T11:10:46.157Z,84.19
2023-04-21T11:11:46.245Z,82.32
2023-04-21T11:12:46.302Z,77.46
2023-04-21T11:13:46.388Z,85.30
2023-04-21T11:14:46.439Z,94.79
2023-04-21T11:15:46.533Z,97.55
2023-04-21T11:16:46.671Z,97.60
2023-04-21T11:17:46.625Z,94.94
2023-04-21T11:18:46.572Z,98.90
2023-04-21T11:19:46.586Z,97.92
2023-04-21T11:20:46.632Z,102.04
2023-04-21T11:21:46.613Z,96.24
2023-04-21T11:22:46.644Z,93.27
2023-04-21T11:23:46.659Z,93.34
2023-04-21T11:24:46.694Z,98.84
2023-04-21T11:25:47.512Z,93.45
2023-04-21T11:26:46.679Z,95.49
2023-04-21T11:27:46.740Z,97.71
2023-04-21T11:28:46.761Z,101.51
2023-04-21T11:29:46.814Z,101.90
2023-04-21T11:30:46.880Z,101.17
2023-04-21T11:31:46.908Z,100.49
2023-04-21T11:32:47.003Z,104.58
2023-04-21T11:33:47.036Z,108.67
2023-04-21T11:34:47.032Z,109.51
2023-04-21T11:35:47.031Z,109.64
2023-04-21T11:36:47.038Z,110.15
2023-04-21T11:37:47.091Z,111.84
2023-04-21T11:38:47.080Z,113.58
2023-04-21T11:39:47.094Z,114.73
2023-04-21T11:40:47.107Z,115.99
2023-04-21T11:41:47.117Z,118.50
2023-04-21T11:42:47.112Z,117.34
2023-04-21T11:43:47.131Z,121.68
2023-04-21T11:44:47.128Z,120.10
2023-04-21T11:45:47.135Z,120.23
2023-04-21T11:46:47.337Z,121.67
2023-04-21T11:47:47.198Z,118.81
2023-04-21T11:48:47.169Z,116.81
2023-04-21T11:49:47.159Z,219.72
2023-04-21T11:50:47.168Z,246.00
2023-04-21T11:51:47.185Z,224.25
2023-04-21T11:52:47.189Z,203.52
2023-04-21T11:53:47.278Z,188.72
2023-04-21T11:54:47.206Z,182.22
2023-04-21T11:55:47.213Z,181.18
2023-04-21T11:56:47.218Z,182.40
2023-04-21T11:57:47.225Z,181.78
2023-04-21T11:58:47.287Z,183.32
2023-04-21T11:59:47.257Z,183.73
2023-04-21T12:00:47.342Z,184.20
2023-04-21T12:01:47.304Z,179.96
2023-04-21T12:02:47.427Z,177.76
2023-04-21T12:03:47.585Z,174.46
2023-04-21T12:04:47.628Z,177.35
2023-04-21T12:05:47.360Z,178.68
2023-04-21T12:06:47.338Z,177.80
2023-04-21T12:07:47.347Z,178.63
2023-04-21T12:08:47.382Z,176.81
2023-04-21T12:09:47.352Z,178.18
2023-04-21T12:10:47.429Z,178.77
2023-04-21T12:11:49.427Z,180.72
2023-04-21T12:12:47.375Z,181.61
2023-04-21T12:13:47.424Z,181.51
2023-04-21T12:14:47.417Z,181.07
2023-04-21T12:15:47.459Z,181.04
2023-04-21T12:16:47.591Z,181.67
2023-04-21T12:17:47.613Z,181.44
2023-04-21T12:18:47.558Z,182.98
2023-04-21T12:19:47.624Z,187.76
2023-04-21T12:20:47.641Z,187.83
2023-04-21T12:21:47.635Z,187.59
2023-04-21T12:22:47.659Z,187.78
2023-04-21T12:23:47.654Z,186.67
2023-04-21T12:24:47.660Z,186.23
2023-04-21T12:25:47.663Z,186.61
2023-04-21T12:26:47.674Z,187.23
2023-04-21T12:27:47.716Z,186.46
2023-04-21T12:28:47.696Z,188.52
2023-04-21T12:29:47.723Z,188.31
2023-04-21T12:30:47.796Z,189.54
2023-04-21T12:31:47.916Z,189.32
2023-04-21T12:32:47.970Z,186.92
2023-04-21T12:33:48.061Z,187.16
2023-04-21T12:34:48.080Z,186.10
2023-04-21T12:35:48.139Z,187.68
2023-04-21T12:36:48.220Z,190.11
2023-04-21T12:37:48.296Z,190.43
2023-04-21T12:38:48.363Z,191.69
2023-04-21T12:39:48.424Z,190.24